createdAt,value
2018-04-30T00:04:22.295Z,96.80
2018-04-30T00:09:25.397Z,96.70
2018-04-30T00:14:28.452Z,96.80
2018-04-30T00:19:33.040Z,96.90
2018-04-30T00:24:36.510Z,97.10
2018-04-30T00:29:41.116Z,97.50
2018-04-30T00:34:44.193Z,97.10
2018-04-30T00:39:49.331Z,96.80
2018-04-30T00:44:53.164Z,96.90
2018-04-30T00:49:57.011Z,97.00
2018-04-30T01:00:04.917Z,97.10
2018-04-30T01:05:08.402Z,97.10
2018-04-30T01:10:12.257Z,97.20
2018-04-30T01:15:16.117Z,97.10
2018-04-30T01:20:19.977Z,97.30
2018-04-30T01:25:23.822Z,96.80
2018-04-30T01:30:27.702Z,96.90
2018-04-30T01:35:31.196Z,97.00
2018-04-30T01:40:35.054Z,97.00
2018-04-30T01:45:38.154Z,96.80
2018-04-30T01:50:42.387Z,96.80
2018-04-30T01:55:45.471Z,96.80
2018-04-30T02:00:48.566Z,97.00
2018-04-30T02:05:52.443Z,96.90
2018-04-30T02:10:55.530Z,96.90
2018-04-30T02:21:04.195Z,96.80
2018-04-30T02:31:11.709Z,96.90
2018-04-30T02:36:16.297Z,97.10
2018-04-30T02:41:19.402Z,97.10
2018-04-30T02:46:22.491Z,97.30
2018-04-30T02:51:26.712Z,97.30
2018-04-30T02:56:30.938Z,97.40
2018-04-30T03:01:34.044Z,97.60
2018-04-30T03:06:37.526Z,97.90
2018-04-30T03:11:41.044Z,97.90
2018-04-30T03:16:44.654Z,97.60
2018-04-30T03:21:48.124Z,96.60
2018-04-30T03:26:51.235Z,95.70
2018-04-30T03:31:54.316Z,95.50
2018-04-30T03:36:57.791Z,95.20
2018-04-30T03:42:00.902Z,95.20
2018-04-30T03:47:03.986Z,95.10
2018-04-30T03:52:07.885Z,95.70
2018-04-30T03:57:10.972Z,95.60
2018-04-30T04:02:31.970Z,95.30
2018-04-30T04:07:35.058Z,95.20
2018-04-30T04:12:38.954Z,95.30
2018-04-30T04:17:41.987Z,94.90
2018-04-30T04:22:45.092Z,94.70
2018-04-30T04:32:52.609Z,94.90
2018-04-30T04:37:55.693Z,94.90
2018-04-30T04:42:58.792Z,94.90
2018-04-30T04:48:01.894Z,94.50
2018-04-30T04:53:04.999Z,94.40
2018-04-30T04:58:09.015Z,94.10
2018-04-30T05:08:17.648Z,93.90
2018-04-30T05:13:20.726Z,93.60
2018-04-30T05:23:28.276Z,93.40
2018-04-30T05:28:31.356Z,93.40
2018-04-30T05:33:34.451Z,93.60
2018-04-30T05:38:39.031Z,94.00
2018-04-30T05:43:42.114Z,93.70
2018-04-30T05:53:49.659Z,93.90
2018-04-30T05:58:54.702Z,93.20
2018-04-30T06:03:58.185Z,93.80
2018-04-30T06:09:01.286Z,92.30
2018-04-30T06:14:06.103Z,92.20
2018-04-30T06:19:09.959Z,91.20
2018-04-30T06:24:14.164Z,90.70
2018-04-30T06:29:17.258Z,90.60
2018-04-30T06:39:26.305Z,89.30
2018-04-30T06:44:29.374Z,88.80
2018-04-30T06:49:33.222Z,88.40
2018-04-30T06:54:36.305Z,87.90
2018-04-30T06:59:40.150Z,89.30
2018-04-30T07:04:44.353Z,89.40
2018-04-30T07:09:47.821Z,90.00
2018-04-30T07:14:51.336Z,87.90
2018-04-30T07:19:54.811Z,87.30
2018-04-30T07:24:58.167Z,88.30
2018-04-30T07:30:02.018Z,88.00
2018-04-30T07:35:05.495Z,85.90
2018-04-30T07:40:09.727Z,84.00
2018-04-30T07:45:12.806Z,84.10
2018-04-30T07:50:15.899Z,82.00
2018-04-30T07:55:19.617Z,82.90
2018-04-30T08:00:23.457Z,82.70
2018-04-30T08:05:26.563Z,83.50
2018-04-30T08:10:30.039Z,83.00
2018-04-30T08:15:34.646Z,83.00
2018-04-30T08:20:37.733Z,81.40
2018-04-30T08:25:41.569Z,80.90
2018-04-30T08:30:45.435Z,80.00
2018-04-30T08:35:48.899Z,78.00
2018-04-30T08:40:52.383Z,78.40
2018-04-30T08:45:55.875Z,79.70
2018-04-30T08:50:59.734Z,78.40
2018-04-30T08:56:03.656Z,78.50
2018-04-30T09:01:06.683Z,79.50
2018-04-30T09:06:09.786Z,77.40
2018-04-30T09:11:13.635Z,77.00
2018-04-30T09:16:16.746Z,76.60
2018-04-30T09:21:19.882Z,76.60
2018-04-30T09:26:24.125Z,77.80
2018-04-30T09:31:28.334Z,77.20
2018-04-30T09:36:32.591Z,75.60
2018-04-30T09:41:36.107Z,76.50
2018-04-30T09:46:39.588Z,74.70
2018-04-30T09:51:43.070Z,74.70
2018-04-30T10:01:50.986Z,73.30
2018-04-30T10:06:54.837Z,74.50
2018-04-30T10:11:58.427Z,72.40
2018-04-30T10:17:02.294Z,72.90
2018-04-30T10:22:05.393Z,73.70
2018-04-30T10:27:08.892Z,73.80
2018-04-30T10:37:17.185Z,75.50
2018-04-30T10:47:25.092Z,76.10
2018-04-30T10:52:28.421Z,75.20
2018-04-30T11:02:35.976Z,78.70
2018-04-30T11:07:39.053Z,80.20
2018-04-30T11:12:42.148Z,82.50
2018-04-30T11:17:45.632Z,81.40
2018-04-30T11:22:49.737Z,80.00
2018-04-30T11:38:01.727Z,75.20
2018-04-30T11:43:05.209Z,75.60
2018-04-30T11:48:09.062Z,76.60
2018-04-30T11:58:16.623Z,76.40
2018-04-30T12:03:20.114Z,78.00
2018-04-30T12:08:23.190Z,77.20
2018-04-30T12:13:26.284Z,77.70
2018-04-30T12:18:30.162Z,78.20
2018-04-30T12:23:33.875Z,81.70
2018-04-30T12:33:42.174Z,87.40
2018-04-30T12:38:45.279Z,83.30
2018-04-30T12:43:48.420Z,82.20
2018-04-30T12:53:55.879Z,77.90
2018-04-30T13:04:04.433Z,78.00
2018-04-30T13:09:07.633Z,76.20
2018-04-30T13:14:11.424Z,75.20
2018-04-30T13:24:20.495Z,85.30
2018-04-30T13:29:24.351Z,85.50
2018-04-30T13:34:28.957Z,83.60
2018-04-30T13:39:32.446Z,81.90
2018-04-30T13:44:35.539Z,85.80
2018-04-30T13:49:38.627Z,86.10
2018-04-30T13:54:41.723Z,88.40
2018-04-30T14:09:55.198Z,90.00
2018-04-30T14:20:02.820Z,91.10
2018-04-30T14:30:10.353Z,90.80
2018-04-30T14:35:13.438Z,90.70
2018-04-30T14:40:17.665Z,91.00
2018-04-30T14:45:21.515Z,90.80
2018-04-30T14:50:24.606Z,89.40
2018-04-30T14:55:28.574Z,87.70
2018-04-30T15:00:32.059Z,87.50
2018-04-30T15:05:35.163Z,88.50
2018-04-30T15:15:44.208Z,88.70
2018-04-30T15:20:47.299Z,89.70
2018-04-30T15:30:54.830Z,87.90
2018-04-30T15:41:03.108Z,87.90
2018-04-30T15:46:06.170Z,84.80
2018-04-30T15:51:09.255Z,83.60
2018-04-30T15:56:12.742Z,80.20
2018-04-30T16:01:16.983Z,80.10
2018-04-30T16:06:20.830Z,79.90
2018-04-30T16:11:25.054Z,76.00
2018-04-30T16:16:28.146Z,75.20
2018-04-30T16:26:35.681Z,74.50
2018-04-30T16:31:38.768Z,73.50
2018-04-30T16:36:41.850Z,72.70
2018-04-30T16:46:49.377Z,73.80
2018-04-30T16:51:54.173Z,74.90
2018-04-30T16:56:58.483Z,74.60
2018-04-30T17:02:01.580Z,76.70
2018-04-30T17:12:09.851Z,77.70
2018-04-30T17:17:14.598Z,78.80
2018-04-30T17:22:17.696Z,76.50
2018-04-30T17:32:25.961Z,79.70
2018-04-30T17:37:29.811Z,80.60
2018-04-30T17:42:32.903Z,80.90
2018-04-30T17:52:41.198Z,82.00
2018-04-30T17:57:44.280Z,82.50
2018-04-30T18:02:48.982Z,77.20
2018-04-30T18:07:52.826Z,75.90
2018-04-30T18:12:56.682Z,76.20
2018-04-30T18:18:00.165Z,75.90
2018-04-30T18:23:04.006Z,76.30
2018-04-30T18:28:07.097Z,75.80
2018-04-30T18:33:11.343Z,76.70
2018-04-30T18:38:14.387Z,80.00
2018-04-30T18:43:17.577Z,80.40
2018-04-30T18:53:25.269Z,81.40
2018-04-30T18:58:29.724Z,80.80
2018-04-30T19:03:34.095Z,81.00
2018-04-30T19:08:37.256Z,79.30
2018-04-30T19:13:40.800Z,79.60
2018-04-30T19:18:44.738Z,79.70
2018-04-30T19:23:48.590Z,80.70
2018-04-30T19:28:51.720Z,80.40
2018-04-30T19:33:55.889Z,80.40
2018-04-30T19:44:03.822Z,75.60
2018-04-30T19:49:06.934Z,75.60
2018-04-30T19:54:10.015Z,75.30
2018-04-30T19:59:13.861Z,73.90
2018-04-30T20:04:17.718Z,73.90
2018-04-30T20:14:26.747Z,74.80
2018-04-30T20:19:30.608Z,75.40
2018-04-30T20:24:33.689Z,75.40
2018-04-30T20:29:36.807Z,75.60
2018-04-30T20:34:39.919Z,75.10
2018-04-30T20:39:44.522Z,77.10
2018-04-30T20:44:47.618Z,76.00
2018-04-30T20:49:50.704Z,75.40
2018-04-30T20:54:54.545Z,76.20
2018-04-30T20:59:57.667Z,75.10
2018-04-30T21:05:00.765Z,75.60
2018-04-30T21:10:03.856Z,74.80
2018-04-30T21:15:08.467Z,75.20
2018-04-30T21:20:11.537Z,74.30
2018-04-30T21:25:14.629Z,75.50
2018-04-30T21:30:17.698Z,75.10
2018-04-30T21:35:22.306Z,75.60
2018-04-30T21:40:26.906Z,75.30
2018-04-30T21:45:31.486Z,75.40
2018-04-30T21:50:34.955Z,75.10
2018-04-30T21:55:38.046Z,76.10
2018-04-30T22:00:42.652Z,76.20
2018-04-30T22:05:46.017Z,76.00
2018-04-30T22:15:55.828Z,76.30
2018-04-30T22:20:59.678Z,77.40
2018-04-30T22:26:02.755Z,76.60
2018-04-30T22:31:06.210Z,76.50
2018-04-30T22:36:10.725Z,77.00
2018-04-30T22:41:14.571Z,77.00
2018-04-30T22:51:22.491Z,77.00
2018-04-30T22:56:26.693Z,77.20
2018-04-30T23:01:30.684Z,77.20
2018-04-30T23:06:34.526Z,77.90
2018-04-30T23:11:38.930Z,77.20
2018-04-30T23:16:42.951Z,78.00
2018-04-30T23:21:46.027Z,77.20
2018-04-30T23:26:49.099Z,77.70
2018-04-30T23:31:52.181Z,78.90
2018-04-30T23:47:06.208Z,78.60
2018-04-30T23:52:10.789Z,78.20
2018-04-30T23:57:13.859Z,78.40
